Time;durP1;ratioP1;P1;durP2;ratioP2;P2;SDS_P1;SDS_P2;PMS_P1;PMS_P2;Temp;Humidity;BMP_temperature;BMP_pressure;BME280_temperature;BME280_humidity;BME280_pressure;Samples;Min_cycle;Max_cycle;Signal;HPM_P1;HPM_P2
2022/03/01 00:02:06;;;;;;;;;;;1.80;99.90;;;;;;4936488;29;20680;-78
2022/03/01 00:04:33;;;;;;;;;;;1.80;99.90;;;;;;4947768;28;19926;-78
2022/03/01 00:06:59;;;;;;;;;;;1.80;99.90;;;;;;4955516;28;19935;-78
2022/03/01 00:09:26;;;;;;;;;;;1.80;99.90;;;;;;4953149;28;19934;-78
2022/03/01 00:11:53;;;;;;;;;;;1.80;99.90;;;;;;4947194;28;19935;-78
2022/03/01 00:14:20;;;;;;;;;;;1.80;99.90;;;;;;4952196;28;19970;-78
2022/03/01 00:16:47;;;;;;;;;;;1.80;99.90;;;;;;4953559;28;19982;-78
2022/03/01 00:19:15;;;;;;;;;;;1.70;99.90;;;;;;4938734;28;19974;-78
2022/03/01 00:21:42;;;;;;;;;;;1.70;99.90;;;;;;4948625;28;19930;-78
2022/03/01 00:24:09;;;;;;;;;;;1.70;99.90;;;;;;4950564;28;20393;-78
2022/03/01 00:26:36;;;;;;;;;;;1.70;99.90;;;;;;4953157;28;19930;-78
2022/03/01 00:29:03;;;;;;;;;;;1.70;99.90;;;;;;4951091;28;19933;-80
2022/03/01 00:31:30;;;;;;;;;;;1.70;99.90;;;;;;4951595;28;20388;-78
2022/03/01 00:33:56;;;;;;;;;;;1.70;99.90;;;;;;4936722;28;20308;-78
2022/03/01 00:36:25;;;;;;;;;;;1.70;99.90;;;;;;4952863;28;19969;-78
2022/03/01 00:38:52;;;;;;;;;;;1.70;99.90;;;;;;4940418;28;20405;-78
2022/03/01 00:41:19;;;;;;;;;;;1.60;99.90;;;;;;4954860;28;20349;-78
2022/03/01 00:43:45;;;;;;;;;;;1.60;99.90;;;;;;4956829;28;20661;-78
2022/03/01 00:46:12;;;;;;;;;;;1.60;99.90;;;;;;4951594;28;20302;-78
2022/03/01 00:48:39;;;;;;;;;;;1.60;99.90;;;;;;4955980;28;19934;-78
2022/03/01 00:51:07;;;;;;;;;;;1.60;99.90;;;;;;4952521;28;20270;-78
2022/03/01 00:53:35;;;;;;;;;;;1.60;99.90;;;;;;4951907;29;20393;-78
2022/03/01 00:56:04;;;;;;;;;;;1.50;99.90;;;;;;4947728;28;19974;-78
2022/03/01 00:58:31;;;;;;;;;;;1.50;99.90;;;;;;4957380;28;19926;-78
2022/03/01 01:00:58;;;;;;;;;;;1.50;99.90;;;;;;4950611;28;19970;-78
2022/03/01 01:03:24;;;;;;;;;;;1.50;99.90;;;;;;4941586;28;19926;-78
2022/03/01 01:05:51;;;;;;;;;;;1.50;99.90;;;;;;4937168;29;20009;-78
2022/03/01 01:08:18;;;;;;;;;;;1.40;99.90;;;;;;4953543;28;19937;-78
2022/03/01 01:10:46;;;;;;;;;;;1.40;99.90;;;;;;4952167;28;19938;-78
2022/03/01 01:13:13;;;;;;;;;;;1.50;99.90;;;;;;4940488;29;19941;-78
2022/03/01 01:15:40;;;;;;;;;;;1.40;99.90;;;;;;4940248;28;19937;-78
2022/03/01 01:18:07;;;;;;;;;;;1.40;99.90;;;;;;4953559;28;20376;-78
2022/03/01 01:20:34;;;;;;;;;;;1.40;99.90;;;;;;4943543;28;19962;-78
2022/03/01 01:23:01;;;;;;;;;;;1.40;99.90;;;;;;4945607;29;20404;-78
2022/03/01 01:25:28;;;;;;;;;;;1.40;99.90;;;;;;4947122;28;19927;-78
2022/03/01 01:27:57;;;;;;;;;;;1.30;99.90;;;;;;4959374;28;19926;-78
2022/03/01 01:30:25;;;;;;;;;;;1.30;99.90;;;;;;4954336;28;19933;-78
2022/03/01 01:32:52;;;;;;;;;;;1.30;99.90;;;;;;4955765;28;19927;-78
2022/03/01 01:35:20;;;;;;;;;;;1.30;99.90;;;;;;4954182;28;19934;-78
2022/03/01 01:37:47;;;;;;;;;;;1.30;99.90;;;;;;4954005;28;19930;-78
2022/03/01 01:40:15;;;;;;;;;;;1.30;99.90;;;;;;4954886;28;19934;-78
2022/03/01 01:42:42;;;;;;;;;;;1.30;99.90;;;;;;4954673;28;19942;-78
2022/03/01 01:45:11;;;;;;;;;;;1.30;99.90;;;;;;4944100;28;20312;-78
2022/03/01 01:47:38;;;;;;;;;;;1.30;99.90;;;;;;4943579;28;19933;-78
2022/03/01 01:50:05;;;;;;;;;;;1.20;99.90;;;;;;4960296;28;19933;-79
2022/03/01 01:52:32;;;;;;;;;;;1.20;99.90;;;;;;4943466;28;20393;-78
2022/03/01 01:54:59;;;;;;;;;;;1.20;99.90;;;;;;4952950;28;20025;-78
2022/03/01 01:57:27;;;;;;;;;;;1.20;99.90;;;;;;4957656;28;19933;-78
2022/03/01 01:59:55;;;;;;;;;;;1.20;99.90;;;;;;4952505;28;20394;-78
2022/03/01 02:02:24;;;;;;;;;;;1.20;99.90;;;;;;4957921;28;19930;-78
2022/03/01 02:04:51;;;;;;;;;;;1.10;99.90;;;;;;4958609;28;19933;-78
2022/03/01 02:07:18;;;;;;;;;;;1.10;99.90;;;;;;4929853;29;19938;-77
2022/03/01 02:09:45;;;;;;;;;;;1.10;99.90;;;;;;4936664;29;19930;-78
2022/03/01 02:12:12;;;;;;;;;;;1.10;99.90;;;;;;4953329;28;19926;-78
2022/03/01 02:14:40;;;;;;;;;;;1.10;99.90;;;;;;4956747;28;19932;-78
2022/03/01 02:17:08;;;;;;;;;;;1.10;99.90;;;;;;4937922;29;19934;-78
2022/03/01 02:19:36;;;;;;;;;;;1.10;99.90;;;;;;4954588;28;20029;-78
2022/03/01 02:22:06;;;;;;;;;;;1.10;99.90;;;;;;4953726;28;19926;-78
2022/03/01 02:24:33;;;;;;;;;;;1.10;99.90;;;;;;4953122;28;19980;-78
2022/03/01 02:27:01;;;;;;;;;;;1.10;99.90;;;;;;4958606;28;19926;-78
2022/03/01 02:29:28;;;;;;;;;;;1.00;99.90;;;;;;4954371;28;19935;-78
2022/03/01 02:31:56;;;;;;;;;;;1.00;99.90;;;;;;4945773;28;20365;-78
2022/03/01 02:34:26;;;;;;;;;;;1.00;99.90;;;;;;4949305;29;20294;-78
2022/03/01 02:36:53;;;;;;;;;;;1.00;99.90;;;;;;4954012;29;19933;-78
2022/03/01 02:39:21;;;;;;;;;;;0.90;99.90;;;;;;4954112;28;19927;-78
2022/03/01 02:41:48;;;;;;;;;;;0.90;99.90;;;;;;4950769;29;20393;-78
2022/03/01 02:44:15;;;;;;;;;;;0.90;99.90;;;;;;4956616;28;19961;-78
2022/03/01 02:46:42;;;;;;;;;;;0.90;99.90;;;;;;4946372;28;19961;-78
2022/03/01 02:49:10;;;;;;;;;;;0.90;99.90;;;;;;4949597;28;19926;-78
2022/03/01 02:51:37;;;;;;;;;;;0.90;99.90;;;;;;4955978;28;19933;-78
2022/03/01 02:54:04;;;;;;;;;;;0.90;99.90;;;;;;4940450;29;19974;-78
2022/03/01 02:56:32;;;;;;;;;;;0.90;99.90;;;;;;4952541;28;22255;-78
2022/03/01 02:58:59;;;;;;;;;;;0.90;99.90;;;;;;4953042;28;19973;-78
2022/03/01 03:01:27;;;;;;;;;;;0.90;99.90;;;;;;4938249;28;19974;-78
2022/03/01 03:03:54;;;;;;;;;;;0.90;99.90;;;;;;4953973;28;19934;-78
2022/03/01 03:06:20;;;;;;;;;;;0.80;99.90;;;;;;4945763;29;19934;-77
2022/03/01 03:08:47;;;;;;;;;;;0.80;99.90;;;;;;4953847;28;19958;-78
2022/03/01 03:11:14;;;;;;;;;;;0.80;99.90;;;;;;4959012;28;20409;-78
2022/03/01 03:13:43;;;;;;;;;;;0.70;99.90;;;;;;4951459;28;19931;-78
2022/03/01 03:16:10;;;;;;;;;;;0.80;99.90;;;;;;4952736;28;20013;-78
2022/03/01 03:18:37;;;;;;;;;;;0.70;99.90;;;;;;4954548;28;19997;-77
2022/03/01 03:21:04;;;;;;;;;;;0.70;99.90;;;;;;4948981;28;19983;-77
2022/03/01 03:23:32;;;;;;;;;;;0.70;99.90;;;;;;4950956;28;20344;-78
2022/03/01 03:25:58;;;;;;;;;;;0.70;99.90;;;;;;4953100;28;19990;-78
2022/03/01 03:28:26;;;;;;;;;;;0.70;99.90;;;;;;4954338;28;20397;-78
2022/03/01 03:30:55;;;;;;;;;;;0.70;99.90;;;;;;4947828;28;19962;-77
2022/03/01 03:33:22;;;;;;;;;;;0.70;99.90;;;;;;4941311;29;20405;-78
2022/03/01 03:35:49;;;;;;;;;;;0.70;99.90;;;;;;4956656;28;20385;-78
2022/03/01 03:38:16;;;;;;;;;;;0.70;99.90;;;;;;4951075;28;19926;-77
2022/03/01 03:40:43;;;;;;;;;;;0.60;99.90;;;;;;4938815;28;19958;-77
2022/03/01 03:43:10;;;;;;;;;;;0.60;99.90;;;;;;4952964;28;19926;-77
2022/03/01 03:45:37;;;;;;;;;;;0.60;99.90;;;;;;4953465;28;20018;-77
2022/03/01 03:48:06;;;;;;;;;;;0.60;99.90;;;;;;4934238;29;20018;-78
2022/03/01 03:50:33;;;;;;;;;;;0.60;99.90;;;;;;4953254;28;19927;-77
2022/03/01 03:53:00;;;;;;;;;;;0.60;99.90;;;;;;4951727;28;19935;-77
2022/03/01 03:55:27;;;;;;;;;;;0.60;99.90;;;;;;4953097;28;20018;-77
2022/03/01 03:57:54;;;;;;;;;;;0.60;99.90;;;;;;4954149;28;19930;-77
2022/03/01 04:00:21;;;;;;;;;;;0.50;99.90;;;;;;4952447;28;19982;-78
2022/03/01 04:02:50;;;;;;;;;;;0.50;99.90;;;;;;4952938;28;20388;-77
2022/03/01 04:05:19;;;;;;;;;;;0.50;99.90;;;;;;4952779;28;19926;-78
2022/03/01 04:07:46;;;;;;;;;;;0.50;99.90;;;;;;4950474;28;19927;-77
2022/03/01 04:10:13;;;;;;;;;;;0.50;99.90;;;;;;4954636;28;20484;-78
2022/03/01 04:12:40;;;;;;;;;;;0.50;99.90;;;;;;4950584;28;19926;-77
2022/03/01 04:15:08;;;;;;;;;;;0.40;99.90;;;;;;4950191;28;19926;-78
2022/03/01 04:17:36;;;;;;;;;;;0.40;99.90;;;;;;4955562;28;19927;-77
2022/03/01 04:20:03;;;;;;;;;;;0.30;99.90;;;;;;4954890;28;19938;-78
2022/03/01 04:22:32;;;;;;;;;;;0.30;99.90;;;;;;4951867;28;19927;-77
2022/03/01 04:24:59;;;;;;;;;;;0.30;99.90;;;;;;4946702;28;19926;-77
2022/03/01 04:27:25;;;;;;;;;;;0.30;99.90;;;;;;4952798;28;19926;-77
2022/03/01 04:29:52;;;;;;;;;;;0.20;99.90;;;;;;4953895;28;19931;-77
2022/03/01 04:32:19;;;;;;;;;;;0.20;99.90;;;;;;4932838;28;19986;-77
2022/03/01 04:34:46;;;;;;;;;;;0.20;99.90;;;;;;4941693;29;19926;-77
2022/03/01 04:37:13;;;;;;;;;;;0.20;99.90;;;;;;4942416;28;19934;-78
2022/03/01 04:39:42;;;;;;;;;;;0.20;99.90;;;;;;4950865;28;19936;-77
2022/03/01 04:42:09;;;;;;;;;;;0.20;99.90;;;;;;4953201;28;19930;-78
2022/03/01 04:44:36;;;;;;;;;;;0.20;99.90;;;;;;4934426;29;19938;-77
2022/03/01 04:47:04;;;;;;;;;;;0.20;99.90;;;;;;4954129;28;19926;-77
2022/03/01 04:49:32;;;;;;;;;;;0.10;99.90;;;;;;4950959;28;19936;-78
2022/03/01 04:51:58;;;;;;;;;;;0.10;99.90;;;;;;4952085;28;20332;-77
2022/03/01 04:54:25;;;;;;;;;;;0.10;99.90;;;;;;4956893;28;19989;-78
2022/03/01 04:56:54;;;;;;;;;;;0.10;99.90;;;;;;4954347;28;20405;-77
2022/03/01 04:59:21;;;;;;;;;;;0.10;99.90;;;;;;4940285;28;20693;-77
2022/03/01 05:01:47;;;;;;;;;;;0.10;99.90;;;;;;4954411;28;19926;-77
2022/03/01 05:04:14;;;;;;;;;;;0.10;99.90;;;;;;4956918;28;19926;-78
2022/03/01 05:06:41;;;;;;;;;;;0.10;99.90;;;;;;4959472;28;19934;-77
2022/03/01 05:09:08;;;;;;;;;;;0.10;99.90;;;;;;4956223;28;19926;-77
2022/03/01 05:11:36;;;;;;;;;;;0.10;99.90;;;;;;4945052;28;19933;-77
2022/03/01 05:14:05;;;;;;;;;;;0.00;99.90;;;;;;4944520;29;20045;-78
2022/03/01 05:16:32;;;;;;;;;;;0.10;99.90;;;;;;4955568;28;19934;-77
2022/03/01 05:18:59;;;;;;;;;;;0.00;99.90;;;;;;4956335;28;19981;-77
2022/03/01 05:21:25;;;;;;;;;;;0.00;99.90;;;;;;4948830;29;20009;-77
2022/03/01 05:23:52;;;;;;;;;;;0.00;99.90;;;;;;4941159;29;20024;-77
2022/03/01 05:26:19;;;;;;;;;;;0.00;99.90;;;;;;4956076;28;19930;-77
2022/03/01 05:28:46;;;;;;;;;;;0.00;99.90;;;;;;4959721;28;19933;-77
2022/03/01 05:31:15;;;;;;;;;;;0.00;99.90;;;;;;4941218;29;20324;-77
2022/03/01 05:33:42;;;;;;;;;;;-0.10;99.90;;;;;;4942841;29;19933;-78
2022/03/01 05:36:09;;;;;;;;;;;-0.10;99.90;;;;;;4945442;29;19926;-77
2022/03/01 05:38:36;;;;;;;;;;;-0.10;99.90;;;;;;4955747;28;20016;-77
2022/03/01 05:41:04;;;;;;;;;;;-0.10;99.90;;;;;;4942678;28;19930;-78
2022/03/01 05:43:31;;;;;;;;;;;-0.10;99.90;;;;;;4950398;28;19926;-78
2022/03/01 05:45:58;;;;;;;;;;;-0.10;99.90;;;;;;4957534;28;20007;-77
2022/03/01 05:48:27;;;;;;;;;;;-0.10;99.90;;;;;;4941196;29;19937;-77
2022/03/01 05:50:54;;;;;;;;;;;-0.10;99.90;;;;;;4952443;28;19977;-76
2022/03/01 05:53:21;;;;;;;;;;;-0.10;99.90;;;;;;4958469;28;20017;-77
2022/03/01 05:55:48;;;;;;;;;;;-0.10;99.90;;;;;;4938866;29;19942;-77
2022/03/01 05:58:16;;;;;;;;;;;-0.10;99.90;;;;;;4955645;28;19927;-78
2022/03/01 06:00:43;;;;;;;;;;;-0.20;99.90;;;;;;4959637;28;19926;-77
2022/03/01 06:03:10;;;;;;;;;;;-0.20;99.90;;;;;;4954650;28;19933;-78
2022/03/01 06:05:38;;;;;;;;;;;-0.20;99.90;;;;;;4948580;28;20325;-77
2022/03/01 06:08:05;;;;;;;;;;;-0.20;99.90;;;;;;4960185;28;19934;-77
2022/03/01 06:10:32;;;;;;;;;;;-0.20;99.90;;;;;;4955137;28;19981;-77
2022/03/01 06:12:59;;;;;;;;;;;-0.20;99.90;;;;;;4954464;28;19930;-78
2022/03/01 06:15:26;;;;;;;;;;;-0.30;99.90;;;;;;4945744;28;19926;-77
2022/03/01 06:17:53;;;;;;;;;;;-0.20;99.90;;;;;;4955294;28;19977;-77
2022/03/01 06:20:20;;;;;;;;;;;-0.20;99.90;;;;;;4954908;28;19930;-77
2022/03/01 06:22:48;;;;;;;;;;;-0.30;99.90;;;;;;4954345;28;20009;-77
2022/03/01 06:25:15;;;;;;;;;;;-0.20;99.90;;;;;;4953452;28;20404;-77
2022/03/01 06:27:42;;;;;;;;;;;-0.30;99.90;;;;;;4956949;28;19926;-77
2022/03/01 06:30:10;;;;;;;;;;;-0.30;99.90;;;;;;4954559;28;19930;-80
2022/03/01 06:32:37;;;;;;;;;;;-0.30;99.90;;;;;;4937103;29;19930;-79
2022/03/01 06:35:05;;;;;;;;;;;-0.30;99.90;;;;;;4940911;28;19930;-77
2022/03/01 06:37:31;;;;;;;;;;;-0.30;99.90;;;;;;4953072;28;19934;-77
2022/03/01 06:40:00;;;;;;;;;;;-0.30;99.90;;;;;;4955305;28;19926;-77
2022/03/01 06:42:27;;;;;;;;;;;-0.30;99.90;;;;;;4952257;28;19931;-77
2022/03/01 06:44:54;;;;;;;;;;;-0.30;99.90;;;;;;4951065;28;20413;-77
2022/03/01 06:47:21;;;;;;;;;;;-0.40;99.90;;;;;;4956600;28;20278;-77
2022/03/01 06:49:47;;;;;;;;;;;-0.40;99.90;;;;;;4938559;29;19926;-77
2022/03/01 06:52:14;;;;;;;;;;;-0.40;99.90;;;;;;4956081;28;19931;-77
2022/03/01 06:54:41;;;;;;;;;;;-0.40;99.90;;;;;;4950716;28;19926;-77
2022/03/01 06:57:10;;;;;;;;;;;-0.40;99.90;;;;;;4961172;28;20383;-77
2022/03/01 06:59:37;;;;;;;;;;;-0.40;99.90;;;;;;4956291;28;19933;-77
2022/03/01 07:02:04;;;;;;;;;;;-0.40;99.90;;;;;;4960897;28;19958;-79
2022/03/01 07:04:31;;;;;;;;;;;-0.40;99.90;;;;;;4958751;28;19926;-77
2022/03/01 07:06:58;;;;;;;;;;;-0.40;99.90;;;;;;4956827;28;19927;-77
2022/03/01 07:09:24;;;;;;;;;;;-0.40;99.90;;;;;;4956130;28;19930;-77
2022/03/01 07:11:51;;;;;;;;;;;-0.40;99.90;;;;;;4935693;28;19927;-77
2022/03/01 07:14:20;;;;;;;;;;;-0.50;99.90;;;;;;4956272;28;19927;-77
2022/03/01 07:16:47;;;;;;;;;;;-0.50;99.90;;;;;;4938443;28;20618;-77
2022/03/01 07:19:13;;;;;;;;;;;-0.50;99.90;;;;;;4958942;28;20435;-77
2022/03/01 07:21:40;;;;;;;;;;;-0.50;99.90;;;;;;4954921;28;19933;-79
2022/03/01 07:24:07;;;;;;;;;;;-0.50;99.90;;;;;;4947397;28;19926;-79
2022/03/01 07:26:34;;;;;;;;;;;-0.50;99.90;;;;;;4938776;28;19930;-77
2022/03/01 07:29:01;;;;;;;;;;;-0.50;99.90;;;;;;4953076;28;20389;-77
2022/03/01 07:31:29;;;;;;;;;;;-0.50;99.90;;;;;;4955745;28;19927;-77
2022/03/01 07:33:56;;;;;;;;;;;-0.50;99.90;;;;;;4957931;28;19934;-77
2022/03/01 07:36:25;;;;;;;;;;;-0.60;99.90;;;;;;4952524;28;20302;-77
2022/03/01 07:38:52;;;;;;;;;;;-0.60;99.90;;;;;;4952327;28;19981;-77
2022/03/01 07:41:19;;;;;;;;;;;-0.60;99.90;;;;;;4951068;28;19927;-77
2022/03/01 07:43:46;;;;;;;;;;;-0.60;99.90;;;;;;4951939;28;19934;-77
2022/03/01 07:46:13;;;;;;;;;;;-0.60;99.90;;;;;;4934659;29;19938;-77
2022/03/01 07:48:41;;;;;;;;;;;-0.60;99.90;;;;;;4954225;28;19965;-77
2022/03/01 07:51:09;;;;;;;;;;;-0.60;99.90;;;;;;4952758;28;19926;-77
2022/03/01 07:53:36;;;;;;;;;;;-0.60;99.90;;;;;;4953790;28;19982;-77
2022/03/01 07:56:03;;;;;;;;;;;-0.60;99.90;;;;;;4943857;28;19933;-77
2022/03/01 07:58:29;;;;;;;;;;;-0.60;99.90;;;;;;4959485;28;19934;-76
2022/03/01 08:00:56;;;;;;;;;;;-0.60;99.90;;;;;;4955866;28;19930;-77
2022/03/01 08:03:23;;;;;;;;;;;-0.60;99.90;;;;;;4950823;28;19957;-77
2022/03/01 08:05:52;;;;;;;;;;;-0.60;99.90;;;;;;4933953;29;19926;-77
2022/03/01 08:08:19;;;;;;;;;;;-0.60;99.90;;;;;;4952195;28;19937;-79
2022/03/01 08:10:46;;;;;;;;;;;-0.60;99.90;;;;;;4933961;29;19931;-79
2022/03/01 08:13:13;;;;;;;;;;;-0.60;99.90;;;;;;4943797;28;19957;-79
2022/03/01 08:15:40;;;;;;;;;;;-0.60;99.90;;;;;;4939632;29;19989;-77
2022/03/01 08:18:07;;;;;;;;;;;-0.60;99.90;;;;;;4963294;28;20292;-77
2022/03/01 08:20:34;;;;;;;;;;;-0.60;99.90;;;;;;4940418;29;19954;-77
2022/03/01 08:23:02;;;;;;;;;;;-0.60;99.90;;;;;;4930615;29;19978;-77
2022/03/01 08:25:30;;;;;;;;;;;-0.60;99.90;;;;;;4955153;28;20319;-77
2022/03/01 08:27:57;;;;;;;;;;;-0.60;99.90;;;;;;4954113;28;19931;-77
2022/03/01 08:30:25;;;;;;;;;;;-0.60;99.90;;;;;;4952362;28;19926;-77
2022/03/01 08:32:52;;;;;;;;;;;-0.60;99.90;;;;;;4953197;28;19926;-77
2022/03/01 08:35:20;;;;;;;;;;;-0.60;99.90;;;;;;4959709;28;19968;-77
2022/03/01 08:37:47;;;;;;;;;;;-0.60;99.90;;;;;;4951124;28;19933;-77
2022/03/01 08:40:18;;;;;;;;;;;-0.60;99.90;;;;;;4952203;28;20405;-77
2022/03/01 08:42:45;;;;;;;;;;;-0.60;99.90;;;;;;4956117;28;20017;-77
2022/03/01 08:45:13;;;;;;;;;;;-0.60;99.90;;;;;;4952242;28;19930;-77
2022/03/01 08:47:40;;;;;;;;;;;-0.60;99.90;;;;;;4949664;28;20024;-77
2022/03/01 08:50:08;;;;;;;;;;;-0.60;99.90;;;;;;4934005;29;19974;-78
2022/03/01 08:52:34;;;;;;;;;;;-0.70;99.90;;;;;;4953601;28;19927;-79
2022/03/01 08:55:02;;;;;;;;;;;-0.70;99.90;;;;;;4953309;28;20020;-80
2022/03/01 08:57:30;;;;;;;;;;;-0.70;99.90;;;;;;4952771;28;19926;-77
2022/03/01 08:59:57;;;;;;;;;;;-0.70;99.90;;;;;;4954688;28;19930;-77
2022/03/01 09:02:24;;;;;;;;;;;-0.70;99.90;;;;;;4947286;29;19926;-77
2022/03/01 09:04:51;;;;;;;;;;;-0.70;99.90;;;;;;4959081;28;19926;-77
2022/03/01 09:07:18;;;;;;;;;;;-0.70;99.90;;;;;;4952255;28;19938;-77
2022/03/01 09:09:44;;;;;;;;;;;-0.70;99.90;;;;;;4951931;28;19967;-77
2022/03/01 09:12:11;;;;;;;;;;;-0.70;99.90;;;;;;4950689;28;19926;-77
2022/03/01 09:14:40;;;;;;;;;;;-0.70;99.90;;;;;;4944044;29;19976;-77
2022/03/01 09:17:07;;;;;;;;;;;-0.80;99.90;;;;;;4958254;28;19930;-77
2022/03/01 09:19:34;;;;;;;;;;;-0.80;99.90;;;;;;4956464;28;19926;-77
2022/03/01 09:22:02;;;;;;;;;;;-0.80;99.90;;;;;;4952390;28;19946;-77
2022/03/01 09:24:29;;;;;;;;;;;-0.80;99.90;;;;;;4952754;29;20357;-77
2022/03/01 09:26:57;;;;;;;;;;;-0.80;99.90;;;;;;4952559;28;19949;-77
2022/03/01 09:29:24;;;;;;;;;;;-0.80;99.90;;;;;;4943455;28;19938;-77
2022/03/01 09:31:52;;;;;;;;;;;-0.80;99.90;;;;;;4954225;28;19926;-77
2022/03/01 09:34:19;;;;;;;;;;;-0.80;99.90;;;;;;4954640;28;19930;-77
2022/03/01 09:36:46;;;;;;;;;;;-0.70;99.90;;;;;;4954223;28;19989;-77
2022/03/01 09:39:13;;;;;;;;;;;-0.70;99.90;;;;;;4948231;28;19941;-77
2022/03/01 09:41:40;;;;;;;;;;;-0.70;99.90;;;;;;4956236;28;19930;-77
2022/03/01 09:44:07;;;;;;;;;;;-0.70;99.90;;;;;;4955808;28;19933;-78
2022/03/01 09:46:34;;;;;;;;;;;-0.70;99.90;;;;;;4956397;28;19956;-77
2022/03/01 09:49:05;;;;;;;;;;;-0.60;99.90;;;;;;4954374;28;19981;-77
2022/03/01 09:51:32;;;;;;;;;;;-0.60;99.90;;;;;;4955369;28;20436;-77
2022/03/01 09:53:59;;;;;;;;;;;-0.70;99.90;;;;;;4955351;28;19927;-77
2022/03/01 09:56:26;;;;;;;;;;;-0.70;99.90;;;;;;4957283;28;20520;-78
2022/03/01 09:58:53;;;;;;;;;;;-0.70;99.90;;;;;;4955714;28;20212;-77
2022/03/01 10:01:20;;;;;;;;;;;-0.70;99.90;;;;;;4953235;28;19934;-77
2022/03/01 10:03:49;;;;;;;;;;;-0.60;99.90;;;;;;4952815;28;20317;-77
2022/03/01 10:06:20;;;;;;;;;;;-0.60;99.90;;;;;;4952818;29;20435;-77
2022/03/01 10:08:51;;;;;;;;;;;-0.60;99.90;;;;;;4961216;28;20025;-77
2022/03/01 10:11:18;;;;;;;;;;;-0.60;99.90;;;;;;4935451;28;19926;-78
2022/03/01 10:13:46;;;;;;;;;;;-0.60;99.90;;;;;;4955575;28;19985;-78
2022/03/01 10:16:13;;;;;;;;;;;-0.50;99.90;;;;;;4955108;28;19977;-78
2022/03/01 10:18:42;;;;;;;;;;;-0.60;99.90;;;;;;4952726;28;19974;-78
2022/03/01 10:21:10;;;;;;;;;;;-0.50;99.90;;;;;;4965097;28;19931;-77
2022/03/01 10:23:41;;;;;;;;;;;-0.50;99.90;;;;;;4963780;28;19926;-77
2022/03/01 10:26:12;;;;;;;;;;;-0.50;99.90;;;;;;4967572;28;19926;-77
2022/03/01 10:28:39;;;;;;;;;;;-0.50;99.90;;;;;;4967884;28;19926;-77
2022/03/01 10:31:10;;;;;;;;;;;-0.50;99.90;;;;;;4956082;28;19930;-77
2022/03/01 10:33:38;;;;;;;;;;;-0.50;99.90;;;;;;4952341;28;20340;-77
2022/03/01 10:36:05;;;;;;;;;;;-0.50;99.90;;;;;;4951854;28;19936;-77
2022/03/01 10:38:32;;;;;;;;;;;-0.50;99.90;;;;;;4956667;28;19927;-77
2022/03/01 10:41:02;;;;;;;;;;;-0.50;99.90;;;;;;4953488;28;19930;-77
2022/03/01 10:43:30;;;;;;;;;;;-0.50;99.90;;;;;;4953497;29;20356;-77
2022/03/01 10:45:57;;;;;;;;;;;-0.40;99.90;;;;;;4955347;28;20029;-77
2022/03/01 10:48:26;;;;;;;;;;;-0.40;99.90;;;;;;4936490;29;19930;-77
2022/03/01 10:51:01;;;;;;;;;;;-0.40;99.90;;;;;;4950360;28;19941;-77
2022/03/01 10:53:28;;;;;;;;;;;-0.40;99.90;;;;;;4956708;28;19954;-77
2022/03/01 10:56:01;;;;;;;;;;;-0.40;99.90;;;;;;4966489;28;19926;-77
2022/03/01 10:58:29;;;;;;;;;;;-0.40;99.90;;;;;;4939008;28;19958;-77
2022/03/01 11:00:56;;;;;;;;;;;-0.30;99.90;;;;;;4963212;28;19934;-77
2022/03/01 11:03:23;;;;;;;;;;;-0.30;99.90;;;;;;4940988;28;19934;-77
2022/03/01 11:05:53;;;;;;;;;;;-0.30;99.90;;;;;;4952794;28;19934;-78
2022/03/01 11:08:21;;;;;;;;;;;-0.30;99.90;;;;;;4953387;28;19931;-79
2022/03/01 11:10:49;;;;;;;;;;;-0.30;99.90;;;;;;4953728;28;20541;-79
2022/03/01 11:13:19;;;;;;;;;;;-0.20;99.90;;;;;;4952937;28;19938;-79
2022/03/01 11:15:57;;;;;;;;;;;-0.20;99.90;;;;;;4940173;28;19927;-78
2022/03/01 11:18:32;;;;;;;;;;;-0.20;99.90;;;;;;4954552;28;19973;-77
2022/03/01 11:20:59;;;;;;;;;;;-0.20;99.90;;;;;;4952044;28;19962;-78
2022/03/01 11:23:27;;;;;;;;;;;-0.20;99.90;;;;;;4943036;29;19926;-77
2022/03/01 11:25:54;;;;;;;;;;;-0.20;99.90;;;;;;4952663;28;19926;-77
2022/03/01 11:28:39;;;;;;;;;;;-0.10;99.90;;;;;;4961866;28;19931;-78
2022/03/01 11:31:18;;;;;;;;;;;-0.20;99.90;;;;;;4945973;28;19938;-77
2022/03/01 11:33:53;;;;;;;;;;;-0.10;99.90;;;;;;4946656;28;19973;-77
2022/03/01 11:36:21;;;;;;;;;;;-0.10;99.90;;;;;;4954187;28;19930;-77
2022/03/01 11:38:48;;;;;;;;;;;-0.10;99.90;;;;;;4952969;28;20748;-77
2022/03/01 11:41:19;;;;;;;;;;;-0.10;99.90;;;;;;4951877;28;19930;-77
2022/03/01 11:43:53;;;;;;;;;;;-0.10;99.90;;;;;;4955184;29;20036;-77
2022/03/01 11:46:20;;;;;;;;;;;-0.10;99.90;;;;;;4953401;28;20378;-77
2022/03/01 11:48:50;;;;;;;;;;;0.00;99.90;;;;;;4954011;28;19934;-77
2022/03/01 11:51:17;;;;;;;;;;;0.00;99.90;;;;;;4945976;28;19937;-77
2022/03/01 11:53:49;;;;;;;;;;;0.00;99.90;;;;;;4952051;28;19926;-78
2022/03/01 11:56:18;;;;;;;;;;;0.00;99.90;;;;;;4955810;28;19926;-77
2022/03/01 11:58:48;;;;;;;;;;;0.00;99.90;;;;;;4951628;28;19972;-77
2022/03/01 12:01:21;;;;;;;;;;;0.10;99.90;;;;;;4948038;28;19956;-77
2022/03/01 12:03:48;;;;;;;;;;;0.10;99.90;;;;;;4952865;28;19940;-78
2022/03/01 12:06:15;;;;;;;;;;;0.10;99.90;;;;;;4952894;28;19976;-78
2022/03/01 12:08:42;;;;;;;;;;;0.10;99.90;;;;;;4955355;28;19933;-77
2022/03/01 12:11:10;;;;;;;;;;;0.20;99.90;;;;;;4953203;28;19930;-77
2022/03/01 12:13:37;;;;;;;;;;;0.20;99.90;;;;;;4959689;28;20321;-77
2022/03/01 12:16:05;;;;;;;;;;;0.20;99.90;;;;;;4959889;28;19930;-77
2022/03/01 12:18:36;;;;;;;;;;;0.20;99.90;;;;;;4935275;28;19926;-77
2022/03/01 12:21:04;;;;;;;;;;;0.30;99.90;;;;;;4961006;28;20419;-78
2022/03/01 12:23:32;;;;;;;;;;;0.30;99.90;;;;;;4955455;28;19927;-78
2022/03/01 12:26:00;;;;;;;;;;;0.30;99.90;;;;;;4953590;28;19934;-78
2022/03/01 12:28:30;;;;;;;;;;;0.30;99.90;;;;;;4949023;28;19930;-78
2022/03/01 12:30:59;;;;;;;;;;;0.40;99.90;;;;;;4944773;28;19942;-78
2022/03/01 12:33:26;;;;;;;;;;;0.40;99.90;;;;;;4953021;28;19927;-78
2022/03/01 12:36:03;;;;;;;;;;;0.40;99.90;;;;;;4953227;28;19926;-78
2022/03/01 12:38:31;;;;;;;;;;;0.50;99.90;;;;;;4948289;29;19926;-78
2022/03/01 12:41:07;;;;;;;;;;;0.50;99.90;;;;;;4951712;28;19950;-78
2022/03/01 12:43:34;;;;;;;;;;;0.50;99.90;;;;;;4949755;28;19993;-78
2022/03/01 12:46:01;;;;;;;;;;;0.60;99.90;;;;;;4944841;29;19930;-78
2022/03/01 12:48:28;;;;;;;;;;;0.70;99.90;;;;;;4952485;28;19927;-78
2022/03/01 12:50:55;;;;;;;;;;;0.70;99.90;;;;;;4944861;28;19993;-78
2022/03/01 12:53:23;;;;;;;;;;;0.70;99.90;;;;;;4933107;29;19957;-78
2022/03/01 12:55:51;;;;;;;;;;;0.70;99.90;;;;;;4952560;28;19927;-79
2022/03/01 12:58:19;;;;;;;;;;;0.80;99.90;;;;;;4950940;28;20023;-78
2022/03/01 13:00:46;;;;;;;;;;;0.90;99.90;;;;;;4957649;28;19927;-80
2022/03/01 13:03:13;;;;;;;;;;;0.80;99.90;;;;;;4941733;28;19936;-79
2022/03/01 13:05:40;;;;;;;;;;;0.90;99.90;;;;;;4954088;28;19942;-78
2022/03/01 13:08:15;;;;;;;;;;;0.90;99.90;;;;;;4957677;28;20312;-78
2022/03/01 13:10:44;;;;;;;;;;;1.00;99.90;;;;;;4951871;28;20002;-78
2022/03/01 13:13:10;;;;;;;;;;;1.20;99.90;;;;;;4937699;29;20328;-79
2022/03/01 13:15:39;;;;;;;;;;;1.20;99.90;;;;;;4957616;28;19937;-79
2022/03/01 13:18:07;;;;;;;;;;;1.30;99.90;;;;;;4961060;28;20472;-79
2022/03/01 13:20:35;;;;;;;;;;;1.30;99.90;;;;;;4954784;28;19927;-78
2022/03/01 13:23:02;;;;;;;;;;;1.30;99.90;;;;;;4956099;28;20407;-79
2022/03/01 13:25:30;;;;;;;;;;;1.30;99.90;;;;;;4955297;28;19934;-78
2022/03/01 13:27:58;;;;;;;;;;;1.40;99.90;;;;;;4952829;28;20423;-79
2022/03/01 13:30:26;;;;;;;;;;;1.40;99.90;;;;;;4955467;28;19946;-78
2022/03/01 13:33:02;;;;;;;;;;;1.50;99.90;;;;;;4956000;28;19978;-78
2022/03/01 13:35:29;;;;;;;;;;;1.50;99.90;;;;;;4945997;29;19933;-79
2022/03/01 13:37:58;;;;;;;;;;;1.60;99.90;;;;;;4946941;29;19933;-80
2022/03/01 13:40:25;;;;;;;;;;;1.60;99.90;;;;;;4947091;29;20392;-80
2022/03/01 13:42:52;;;;;;;;;;;1.60;99.90;;;;;;4951132;28;19926;-81
2022/03/01 13:45:22;;;;;;;;;;;1.70;99.90;;;;;;4955612;28;20305;-79
2022/03/01 13:47:49;;;;;;;;;;;1.70;99.90;;;;;;4956937;28;20501;-78
2022/03/01 13:50:18;;;;;;;;;;;1.80;99.90;;;;;;4952421;28;20361;-79
2022/03/01 13:52:46;;;;;;;;;;;1.80;99.90;;;;;;4949648;28;21045;-79
2022/03/01 13:55:14;;;;;;;;;;;1.80;99.90;;;;;;4958784;28;20397;-79
2022/03/01 13:57:42;;;;;;;;;;;1.90;99.90;;;;;;4956753;28;20351;-79
2022/03/01 14:00:11;;;;;;;;;;;2.00;99.90;;;;;;4944154;28;19934;-79
2022/03/01 14:02:53;;;;;;;;;;;2.00;99.90;;;;;;4951643;28;20400;-79
2022/03/01 14:05:20;;;;;;;;;;;2.10;99.90;;;;;;4953911;28;20421;-79
2022/03/01 14:07:56;;;;;;;;;;;2.10;99.90;;;;;;4963234;28;20665;-78
2022/03/01 14:10:24;;;;;;;;;;;2.10;99.90;;;;;;4954366;28;19982;-79
2022/03/01 14:13:00;;;;;;;;;;;2.10;99.90;;;;;;4959382;28;19926;-79
2022/03/01 14:15:31;;;;;;;;;;;2.20;99.90;;;;;;4946194;28;20567;-79
2022/03/01 14:18:00;;;;;;;;;;;2.20;99.90;;;;;;4950616;28;19930;-79
2022/03/01 14:20:28;;;;;;;;;;;2.20;99.90;;;;;;4962116;28;20365;-79
2022/03/01 14:22:55;;;;;;;;;;;2.30;99.90;;;;;;4959513;28;19932;-79
2022/03/01 14:25:22;;;;;;;;;;;2.40;99.90;;;;;;4955073;28;19972;-79
2022/03/01 14:27:49;;;;;;;;;;;2.40;99.90;;;;;;4941664;28;19927;-79